Nearby METAR Reports

Aktualna pogoda na lotniskach (dane METAR)

 

EPGD - Gdansk/Rebiechow, Poland
Distance from station: ENE 27mi, 44km
Updated: Wed, 20-Nov-2019 11:00am PST
Light drizzle, Mist, Overcast
Light drizzle, Mist, Overcast
 Wind from ESE
Wind: ESE 10 mph , 17 km/h
Temperature: 43°F , 6°C
Wind Chill: 37°F , 3°C
Dew Point: 43°F , 6°C
Humidity: 100%
Barometer: 30.15 inHg , 1021 hPa
Summary: Light drizzle, Mist
Clouds: Overcast
Visibility: 2 miles , 3 km
Cloud details: Overcast 300 ft
2019/11/20 19:00 EPGD 201900Z 11009KT 3000 -DZ BR OVC003 06/06 Q1021
EPSC - Szczecin/Golenio, Poland
Distance from station: WSW 128mi, 205km
Updated: Wed, 20-Nov-2019 11:00am PST
Mist, Mostly cloudy
Mist, Mostly cloudy
 Wind from ESE
Wind: ESE 10 mph , 17 km/h
Temperature: 43°F , 6°C
Wind Chill: 37°F , 3°C
Dew Point: 41°F , 5°C
Humidity: 93%
Barometer: 30.06 inHg , 1018 hPa
Summary: Mist
Clouds: Mostly Cloudy
Visibility: 3 miles , 5 km
Cloud details: Mostly Cloudy 900 ft
Mostly Cloudy 3900 ft
2019/11/20 19:00 EPSC 201900Z 12009KT 5000 BR BKN009 BKN039 06/05 Q1018
 
EPPO - Poznan/Lawica, Poland
Distance from station: SSW 131mi, 210km
Updated: Wed, 20-Nov-2019 11:00am PST
Mist, Overcast
Mist, Overcast
 Wind from E
Wind: E 12 mph , 19 km/h
Temperature: 45°F , 7°C
Wind Chill: 39°F , 4°C
Dew Point: 43°F , 6°C
Humidity: 93%
Barometer: 30.06 inHg , 1018 hPa
Summary: Mist
Clouds: Overcast
Visibility: 3 miles , 5 km
Cloud details: Overcast 400 ft
2019/11/20 19:00 EPPO 201900Z 10010KT 5000 BR OVC004 07/06 Q1018
EPLL - Lodz/Lublinek, Poland
Distance from station: SSE 184mi, 296km
Updated: Wed, 20-Nov-2019 11:00am PST
Mostly Cloudy
Mostly Cloudy
 Wind from E
Wind: E 14 mph , 22 km/h
Temperature: 50°F , 10°C
Wind Chill: 45°F , 7°C
Dew Point: 48°F , 9°C
Humidity: 94%
Barometer: 30.03 inHg , 1017 hPa
Clouds: Mostly Cloudy
Visibility: 4 miles , 6 km
Cloud details: Partly Cloudy 800 ft
Mostly Cloudy 2600 ft
2019/11/20 19:00 EPLL 201900Z 08012KT 6000 SCT008 BKN026 10/09 Q1017
 
EPWA - Warsaw/Okecie, Poland
Distance from station: SE 191mi, 307km
Updated: Wed, 20-Nov-2019 11:00am PST
Mostly Cloudy
Mostly Cloudy
 Wind from E
Wind: E 15 mph , 24 km/h
Temperature: 50°F , 10°C
Wind Chill: 45°F , 7°C
Dew Point: 48°F , 9°C
Humidity: 94%
Barometer: 30.12 inHg , 1020 hPa
Clouds: Mostly Cloudy
Visibility: 6 miles , 10 km
Cloud details: Mostly Cloudy 1100 ft
2019/11/20 19:00 EPWA 201900Z 09013KT 9999 BKN011 10/09 Q1020 NOSIG
EPWR - Wroclaw/Strachow, Poland
Distance from station: S 219mi, 352km
Updated: Wed, 20-Nov-2019 11:00am PST
Mist, Mostly cloudy
Mist, Mostly cloudy
 Wind from E
Wind: E 5 mph , 7 km/h
Temperature: 46°F , 8°C
Wind Chill: 44°F , 7°C
Dew Point: 45°F , 7°C
Humidity: 93%
Barometer: 30 inHg , 1016 hPa
Summary: Mist
Clouds: Mostly Cloudy
Visibility: 3 miles , 5 km
Cloud details: Mostly Cloudy 500 ft
2019/11/20 19:00 EPWR 201900Z 08004KT 5000 BR BKN005 08/07 Q1016

Metar display script from Saratoga-Weather.org